createdAt,value
2023-04-03T00:00:33.417Z,103608.06
2023-04-03T00:03:00.410Z,103614.09
2023-04-03T00:05:27.506Z,103620.97
2023-04-03T00:07:54.205Z,103619.41
2023-04-03T00:10:20.930Z,103612.53
2023-04-03T00:12:47.761Z,103611.59
2023-04-03T00:15:14.657Z,103618.25
2023-04-03T00:17:41.404Z,103620.22
2023-04-03T00:20:08.694Z,103619.53
2023-04-03T00:22:35.402Z,103618.72
2023-04-03T00:25:02.171Z,103623.25
2023-04-03T00:27:29.092Z,103622.53
2023-04-03T00:29:58.120Z,103622.97
2023-04-03T00:32:26.078Z,103616.94
2023-04-03T00:34:52.864Z,103622.22
2023-04-03T00:37:19.560Z,103627.59
2023-04-03T00:39:46.599Z,103634.84
2023-04-03T00:42:13.516Z,103628.69
2023-04-03T00:44:40.295Z,103626.97
2023-04-03T00:47:09.343Z,103630.50
2023-04-03T00:49:37.731Z,103639.19
2023-04-03T00:52:07.902Z,103632.75
2023-04-03T00:54:37.178Z,103637.03
2023-04-03T00:57:05.707Z,103641.44
2023-04-03T00:59:37.123Z,103644.69
2023-04-03T01:02:04.132Z,103646.50
2023-04-03T01:04:38.133Z,103649.03
2023-04-03T01:07:09.853Z,103640.72
2023-04-03T01:09:37.256Z,103640.31
2023-04-03T01:12:26.448Z,103634.38
2023-04-03T01:14:56.199Z,103636.25
2023-04-03T01:17:32.052Z,103632.88
2023-04-03T01:20:23.832Z,103635.72
2023-04-03T01:23:27.805Z,103635.72
2023-04-03T01:25:57.327Z,103627.38
2023-04-03T01:28:35.830Z,103627.13
2023-04-03T01:31:41.196Z,103625.31
2023-04-03T01:34:07.866Z,103622.78
2023-04-03T01:36:34.531Z,103625.47
2023-04-03T01:39:01.894Z,103626.38
2023-04-03T01:41:29.001Z,103621.88
2023-04-03T01:43:56.009Z,103619.00
2023-04-03T01:46:23.364Z,103626.91
2023-04-03T01:48:50.326Z,103631.19
2023-04-03T01:51:17.322Z,103622.34
2023-04-03T01:53:44.031Z,103632.03
2023-04-03T01:56:10.908Z,103627.31
2023-04-03T01:58:37.745Z,103628.75
2023-04-03T02:01:04.653Z,103628.69
2023-04-03T02:03:31.960Z,103636.97
2023-04-03T02:05:58.743Z,103622.97
2023-04-03T02:08:25.534Z,103623.94
2023-04-03T02:10:52.385Z,103618.63
2023-04-03T02:13:19.771Z,103623.50
2023-04-03T02:15:47.300Z,103622.63
2023-04-03T02:18:16.239Z,103621.84
2023-04-03T02:20:43.175Z,103621.00
2023-04-03T02:23:10.730Z,103624.38
2023-04-03T02:25:38.852Z,103622.41
2023-04-03T02:28:06.866Z,103626.69
2023-04-03T02:30:33.719Z,103622.06
2023-04-03T02:33:01.009Z,103617.00
2023-04-03T02:35:27.840Z,103615.50
2023-04-03T02:37:54.636Z,103613.00
2023-04-03T02:40:21.366Z,103616.59
2023-04-03T02:42:48.151Z,103611.34
2023-04-03T02:45:14.839Z,103610.56
2023-04-03T02:47:41.627Z,103607.00
2023-04-03T02:50:08.762Z,103615.56
2023-04-03T02:52:35.578Z,103609.56
2023-04-03T02:55:02.323Z,103613.94
2023-04-03T02:57:29.122Z,103619.50
2023-04-03T02:59:55.880Z,103608.91
2023-04-03T03:02:22.717Z,103613.34
2023-04-03T03:04:49.562Z,103609.78
2023-04-03T03:07:16.363Z,103615.88
2023-04-03T03:09:43.082Z,103609.72
2023-04-03T03:12:09.849Z,103614.00
2023-04-03T03:14:36.621Z,103605.66
2023-04-03T03:17:03.599Z,103609.19
2023-04-03T03:19:30.540Z,103607.19
2023-04-03T03:21:57.978Z,103618.69
2023-04-03T03:24:24.752Z,103618.97
2023-04-03T03:26:51.534Z,103622.53
2023-04-03T03:29:18.347Z,103616.34
2023-04-03T03:31:45.590Z,103612.94
2023-04-03T03:34:12.867Z,103612.13
2023-04-03T03:36:39.974Z,103611.81
2023-04-03T03:39:06.834Z,103614.41
2023-04-03T03:41:33.852Z,103616.13
2023-04-03T03:44:00.582Z,103618.19
2023-04-03T03:46:27.351Z,103615.44
2023-04-03T03:48:54.101Z,103609.50
2023-04-03T03:51:20.972Z,103614.25
2023-04-03T03:53:47.751Z,103609.25
2023-04-03T03:56:14.499Z,103610.28
2023-04-03T03:58:41.175Z,103611.09
2023-04-03T04:01:08.392Z,103608.47
2023-04-03T04:03:35.378Z,103610.16
2023-04-03T04:06:02.433Z,103610.66
2023-04-03T04:08:29.360Z,103607.28
2023-04-03T04:10:56.075Z,103611.69
2023-04-03T04:13:22.896Z,103609.25
2023-04-03T04:15:49.756Z,103618.88
2023-04-03T04:18:16.636Z,103615.44
2023-04-03T04:20:43.364Z,103611.16
2023-04-03T04:23:10.119Z,103611.31
2023-04-03T04:25:40.309Z,103617.69
2023-04-03T04:28:07.696Z,103618.41
2023-04-03T04:30:35.221Z,103618.44
2023-04-03T04:33:02.461Z,103615.19
2023-04-03T04:35:29.407Z,103626.69
2023-04-03T04:37:56.360Z,103621.38
2023-04-03T04:40:23.289Z,103630.38
2023-04-03T04:42:50.330Z,103627.78
2023-04-03T04:45:17.577Z,103634.91
2023-04-03T04:47:44.754Z,103633.88
2023-04-03T04:50:12.464Z,103631.25
2023-04-03T04:52:39.705Z,103633.97
2023-04-03T04:55:06.791Z,103625.22
2023-04-03T04:57:33.661Z,103633.50
2023-04-03T05:00:00.441Z,103636.28
2023-04-03T05:02:27.180Z,103622.03
2023-04-03T05:04:54.026Z,103636.47
2023-04-03T05:07:20.978Z,103635.69
2023-04-03T05:09:47.788Z,103629.53
2023-04-03T05:12:14.581Z,103628.88
2023-04-03T05:14:41.509Z,103632.41
2023-04-03T05:17:08.418Z,103635.00
2023-04-03T05:19:35.117Z,103632.19
2023-04-03T05:22:01.832Z,103637.91
2023-04-03T05:24:29.493Z,103637.03
2023-04-03T05:26:56.312Z,103645.03
2023-04-03T05:29:23.459Z,103650.63
2023-04-03T05:31:51.470Z,103637.00
2023-04-03T05:34:19.228Z,103639.75
2023-04-03T05:36:45.925Z,103650.47
2023-04-03T05:39:12.900Z,103638.53
2023-04-03T05:41:39.646Z,103637.94
2023-04-03T05:44:06.751Z,103642.56
2023-04-03T05:46:34.095Z,103642.03
2023-04-03T05:49:00.897Z,103638.78
2023-04-03T05:51:34.560Z,103636.38
2023-04-03T05:54:11.393Z,103634.22
2023-04-03T05:56:41.043Z,103639.75
2023-04-03T05:59:08.396Z,103633.75
2023-04-03T06:01:35.800Z,103636.69
2023-04-03T06:04:02.725Z,103629.75
2023-04-03T06:06:44.849Z,103631.72
2023-04-03T06:09:11.669Z,103634.53
2023-04-03T06:11:38.552Z,103626.25
2023-04-03T06:14:05.285Z,103591.38
2023-04-03T06:16:31.974Z,103556.66
2023-04-03T06:18:58.682Z,103568.19
2023-04-03T06:21:25.450Z,103558.84
2023-04-03T06:23:52.664Z,103567.34
2023-04-03T06:26:19.561Z,103585.81
2023-04-03T06:28:46.336Z,103609.91
2023-04-03T06:31:13.077Z,103615.88
2023-04-03T06:33:39.717Z,103637.84
2023-04-03T06:36:06.825Z,103637.34
2023-04-03T06:38:35.335Z,103638.44
2023-04-03T06:41:05.971Z,103642.06
2023-04-03T06:43:34.502Z,103650.34
2023-04-03T06:46:02.162Z,103641.06
2023-04-03T06:48:29.019Z,103647.94
2023-04-03T06:50:55.954Z,103660.75
2023-04-03T06:53:22.694Z,103655.53
2023-04-03T06:55:49.633Z,103657.97
2023-04-03T06:58:18.500Z,103669.41
2023-04-03T07:00:46.302Z,103667.16
2023-04-03T07:03:13.001Z,103671.09
2023-04-03T07:05:40.098Z,103673.84
2023-04-03T07:08:07.346Z,103668.53
2023-04-03T07:10:34.013Z,103674.88
2023-04-03T07:13:00.817Z,103681.19
2023-04-03T07:15:27.450Z,103690.13
2023-04-03T07:17:54.324Z,103693.75
2023-04-03T07:20:21.049Z,103704.50
2023-04-03T07:22:47.855Z,103709.81
2023-04-03T07:25:14.583Z,103699.91
2023-04-03T07:27:41.285Z,103693.63
2023-04-03T07:30:08.749Z,103691.78
2023-04-03T07:32:36.246Z,103686.22
2023-04-03T07:35:04.012Z,103679.88
2023-04-03T07:37:30.795Z,103674.41
2023-04-03T07:39:59.524Z,103687.84
2023-04-03T07:42:28.806Z,103680.47
2023-04-03T07:44:55.536Z,103673.97
2023-04-03T07:47:22.265Z,103671.31
2023-04-03T07:49:49.264Z,103667.38
2023-04-03T07:52:16.567Z,103655.56
2023-04-03T07:54:43.438Z,103653.88
2023-04-03T07:57:10.183Z,103639.44
2023-04-03T07:59:36.994Z,103634.72
2023-04-03T08:02:05.966Z,103633.97
2023-04-03T08:04:32.897Z,103618.41
2023-04-03T08:06:59.720Z,103612.78
2023-04-03T08:09:26.543Z,103587.44
2023-04-03T08:11:54.678Z,103585.56
2023-04-03T08:14:21.914Z,103589.00
2023-04-03T08:16:49.259Z,103591.91
2023-04-03T08:19:25.279Z,103583.66
2023-04-03T08:21:54.333Z,103582.91
2023-04-03T08:24:21.306Z,103567.34
2023-04-03T08:26:48.112Z,103556.25
2023-04-03T08:29:14.799Z,103540.06
2023-04-03T08:31:41.499Z,103555.66
2023-04-03T08:34:08.213Z,103543.91
2023-04-03T08:36:35.042Z,103550.28
2023-04-03T08:39:02.064Z,103545.38
2023-04-03T08:41:43.597Z,103548.94
2023-04-03T08:44:26.979Z,103537.63
2023-04-03T08:47:09.776Z,103500.94
2023-04-03T08:49:48.120Z,103492.63
2023-04-03T08:52:18.904Z,103484.56
2023-04-03T08:55:08.499Z,103480.47
2023-04-03T08:57:39.709Z,103495.81
2023-04-03T09:00:18.231Z,103535.47
2023-04-03T09:02:48.516Z,103540.00
2023-04-03T09:05:23.926Z,103526.28
2023-04-03T09:08:00.690Z,103536.22
2023-04-03T09:10:36.320Z,103505.69
2023-04-03T09:13:32.332Z,103490.69
2023-04-03T09:16:01.558Z,103481.78
2023-04-03T09:18:33.671Z,103479.06
2023-04-03T09:21:20.730Z,103468.97
2023-04-03T09:23:51.359Z,103457.16
2023-04-03T09:26:22.425Z,103483.97
2023-04-03T09:28:50.924Z,103491.06
2023-04-03T09:31:21.207Z,103456.34
2023-04-03T09:33:52.471Z,103439.28
2023-04-03T09:36:42.277Z,103418.25
2023-04-03T09:39:19.951Z,103435.88
2023-04-03T09:41:59.285Z,103442.59
2023-04-03T09:44:36.327Z,103451.66
2023-04-03T09:47:20.477Z,103433.06
2023-04-03T09:49:47.186Z,103430.69
2023-04-03T09:52:25.561Z,103433.31
2023-04-03T09:54:52.250Z,103444.81
2023-04-03T09:57:20.239Z,103404.09
2023-04-03T10:00:02.055Z,103438.84
2023-04-03T10:02:39.676Z,103424.59
2023-04-03T10:05:36.892Z,103407.13
2023-04-03T10:08:15.526Z,103398.94
2023-04-03T10:10:45.125Z,103401.50
2023-04-03T10:13:22.414Z,103419.28
2023-04-03T10:15:56.633Z,103395.97
2023-04-03T10:18:44.488Z,103449.69
2023-04-03T10:21:30.300Z,103441.13
2023-04-03T10:24:29.603Z,103483.91
2023-04-03T10:27:25.603Z,103467.59
2023-04-03T10:30:20.995Z,103413.56
2023-04-03T10:33:21.844Z,103427.25
2023-04-03T10:35:54.561Z,103456.16
2023-04-03T10:38:32.331Z,103396.50
2023-04-03T10:41:08.254Z,103375.66
2023-04-03T10:44:03.871Z,103393.66
2023-04-03T10:46:43.998Z,103373.69
2023-04-03T10:49:28.999Z,103377.78
2023-04-03T10:52:28.709Z,103370.81
2023-04-03T10:55:11.626Z,103371.03
2023-04-03T10:57:39.481Z,103365.84
2023-04-03T11:00:22.327Z,103383.00
2023-04-03T11:03:01.916Z,103351.63
2023-04-03T11:05:35.370Z,103374.81
2023-04-03T11:08:34.662Z,103372.19
2023-04-03T11:11:07.473Z,103408.09
2023-04-03T11:14:11.750Z,103378.69
2023-04-03T11:16:53.370Z,103328.06
2023-04-03T11:19:29.140Z,103374.97
2023-04-03T11:22:07.091Z,103402.50
2023-04-03T11:24:37.246Z,103373.59
2023-04-03T11:27:06.366Z,103401.50
2023-04-03T11:29:38.953Z,103411.22
2023-04-03T11:32:19.237Z,103426.69
2023-04-03T11:34:51.045Z,103433.91
2023-04-03T11:37:29.889Z,103401.56
2023-04-03T11:40:04.722Z,103341.13
2023-04-03T11:42:41.854Z,103331.91
2023-04-03T11:45:27.570Z,103303.66
2023-04-03T11:48:04.747Z,103306.00
2023-04-03T11:50:41.511Z,103292.22
2023-04-03T11:53:08.316Z,103302.25
2023-04-03T11:55:35.091Z,103282.06
2023-04-03T11:58:02.014Z,103295.63
2023-04-03T12:00:48.859Z,103306.75
2023-04-03T12:03:27.590Z,103313.47
2023-04-03T12:06:14.695Z,103340.75
2023-04-03T12:08:44.284Z,103376.91
2023-04-03T12:11:14.269Z,103372.09
2023-04-03T12:13:50.453Z,103336.75
2023-04-03T12:16:31.802Z,103340.81
2023-04-03T12:19:03.731Z,103358.03
2023-04-03T12:21:30.447Z,103363.22
2023-04-03T12:24:04.973Z,103422.28
2023-04-03T12:26:48.066Z,103401.91
2023-04-03T12:29:24.699Z,103400.28
2023-04-03T12:31:58.026Z,103399.13
2023-04-03T12:34:40.227Z,103388.84
2023-04-03T12:37:54.167Z,103378.31
2023-04-03T12:40:49.060Z,103403.25
2023-04-03T12:43:59.657Z,103364.47
2023-04-03T12:46:38.393Z,103406.63
2023-04-03T12:49:34.210Z,103414.41
2023-04-03T12:52:01.662Z,103453.75
2023-04-03T12:54:40.901Z,103408.81
2023-04-03T12:57:28.703Z,103392.38
2023-04-03T12:59:55.900Z,103415.63
2023-04-03T13:02:34.772Z,103456.88
2023-04-03T13:05:09.997Z,103452.41
2023-04-03T13:07:41.952Z,103471.94
2023-04-03T13:10:08.853Z,103439.13
2023-04-03T13:12:45.813Z,103439.06
2023-04-03T13:15:20.942Z,103434.59
2023-04-03T13:17:51.081Z,103418.56
2023-04-03T13:20:20.833Z,103397.75
2023-04-03T13:22:56.817Z,103367.50
2023-04-03T13:25:27.298Z,103363.69
2023-04-03T13:28:06.239Z,103365.53
2023-04-03T13:30:41.382Z,103367.53
2023-04-03T13:33:21.852Z,103350.81
2023-04-03T13:35:55.094Z,103375.94
2023-04-03T13:38:32.301Z,103399.00
2023-04-03T13:41:01.972Z,103356.16
2023-04-03T13:43:31.405Z,103344.03
2023-04-03T13:46:23.441Z,103372.59
2023-04-03T13:48:53.163Z,103365.03
2023-04-03T13:51:23.894Z,103372.34
2023-04-03T13:53:56.869Z,103392.84
2023-04-03T13:56:34.200Z,103387.75
2023-04-03T13:59:17.052Z,103411.63
2023-04-03T14:01:54.976Z,103388.03
2023-04-03T14:04:29.170Z,103383.84
2023-04-03T14:06:56.922Z,103430.44
2023-04-03T14:09:25.794Z,103399.66
2023-04-03T14:11:56.684Z,103374.22
2023-04-03T14:14:32.509Z,103368.81
2023-04-03T14:17:03.281Z,103399.75
2023-04-03T14:19:34.306Z,103387.50
2023-04-03T14:22:02.424Z,103384.88
2023-04-03T14:24:29.200Z,103384.38
2023-04-03T14:26:56.119Z,103396.31
2023-04-03T14:29:23.494Z,103442.56
2023-04-03T14:31:57.696Z,103422.19
2023-04-03T14:34:27.314Z,103421.50
2023-04-03T14:36:54.796Z,103447.28
2023-04-03T14:39:21.588Z,103437.63
2023-04-03T14:41:48.417Z,103426.22
2023-04-03T14:44:15.452Z,103442.16
2023-04-03T14:46:56.235Z,103459.66
2023-04-03T14:49:27.674Z,103418.69
2023-04-03T14:51:54.768Z,103420.34
2023-04-03T14:54:29.062Z,103434.31
2023-04-03T14:56:58.254Z,103413.09
2023-04-03T14:59:26.090Z,103435.97
2023-04-03T15:01:52.972Z,103434.06
2023-04-03T15:04:21.876Z,103440.13
2023-04-03T15:06:49.892Z,103390.50
2023-04-03T15:09:26.027Z,103351.13
2023-04-03T15:11:54.648Z,103324.50
2023-04-03T15:14:35.362Z,103284.63
2023-04-03T15:17:05.969Z,103268.94
2023-04-03T15:19:40.523Z,103247.34
2023-04-03T15:22:07.963Z,103246.63
2023-04-03T15:24:34.690Z,103254.38
2023-04-03T15:27:02.251Z,103243.00
2023-04-03T15:29:29.108Z,103228.19
2023-04-03T15:31:56.035Z,103260.81
2023-04-03T15:34:23.248Z,103245.56
2023-04-03T15:36:53.706Z,103266.88
2023-04-03T15:39:21.637Z,103274.16
2023-04-03T15:41:48.521Z,103278.63
2023-04-03T15:44:18.531Z,103277.75
2023-04-03T15:46:46.825Z,103286.19
2023-04-03T15:49:14.062Z,103269.03
2023-04-03T15:51:40.762Z,103283.22
2023-04-03T15:54:07.772Z,103284.09
2023-04-03T15:56:34.536Z,103297.63
2023-04-03T15:59:01.634Z,103277.03
2023-04-03T16:01:28.767Z,103280.84
2023-04-03T16:03:55.743Z,103285.56
2023-04-03T16:06:22.652Z,103305.28
2023-04-03T16:08:50.511Z,103303.44
2023-04-03T16:11:17.217Z,103285.75
2023-04-03T16:13:44.294Z,103269.59
2023-04-03T16:16:11.204Z,103266.09
2023-04-03T16:18:38.106Z,103231.31
2023-04-03T16:21:07.284Z,103241.16
2023-04-03T16:23:34.064Z,103263.75
2023-04-03T16:26:00.821Z,103255.00
2023-04-03T16:28:27.543Z,103246.03
2023-04-03T16:30:54.361Z,103242.25
2023-04-03T16:33:22.929Z,103256.78
2023-04-03T16:35:51.392Z,103273.03
2023-04-03T16:38:19.845Z,103283.94
2023-04-03T16:40:47.681Z,103302.78
2023-04-03T16:43:14.502Z,103301.16
2023-04-03T16:45:41.574Z,103282.63
2023-04-03T16:48:08.666Z,103313.41
2023-04-03T16:50:35.838Z,103327.56
2023-04-03T16:53:04.071Z,103340.06
2023-04-03T16:55:31.045Z,103345.84
2023-04-03T16:58:04.126Z,103392.25
2023-04-03T17:00:38.200Z,103395.72
2023-04-03T17:03:07.808Z,103386.66
2023-04-03T17:05:34.980Z,103369.06
2023-04-03T17:08:02.925Z,103376.22
2023-04-03T17:10:30.375Z,103379.09
2023-04-03T17:12:57.654Z,103396.31
2023-04-03T17:15:25.689Z,103406.94
2023-04-03T17:17:57.782Z,103413.13
2023-04-03T17:20:27.714Z,103417.91
2023-04-03T17:22:56.491Z,103416.16
2023-04-03T17:25:24.106Z,103433.25
2023-04-03T17:27:52.102Z,103450.34
2023-04-03T17:30:19.032Z,103439.94
2023-04-03T17:32:45.771Z,103465.00
2023-04-03T17:35:12.602Z,103466.78
2023-04-03T17:37:39.861Z,103473.94
2023-04-03T17:40:11.274Z,103466.09
2023-04-03T17:42:38.663Z,103476.94
2023-04-03T17:45:15.686Z,103487.88
2023-04-03T17:47:55.537Z,103499.59
2023-04-03T17:50:40.460Z,103502.41
2023-04-03T17:53:44.814Z,103516.78
2023-04-03T17:56:38.808Z,103514.22
2023-04-03T17:59:47.203Z,103532.28
2023-04-03T18:02:47.779Z,103535.94
2023-04-03T18:08:22.465Z,103537.78
2023-04-03T18:11:20.040Z,103533.31
2023-04-03T18:17:39.442Z,103531.53
2023-04-03T18:20:23.056Z,103521.69
2023-04-03T18:23:02.130Z,103523.50
2023-04-03T18:26:03.907Z,103536.94
2023-04-03T18:28:53.170Z,103536.97
2023-04-03T18:31:42.058Z,103536.94
2023-04-03T18:34:34.528Z,103534.28
2023-04-03T18:37:16.548Z,103535.16
2023-04-03T18:46:18.783Z,103544.09
2023-04-03T18:49:23.089Z,103538.72
2023-04-03T18:55:03.901Z,103537.78
2023-04-03T18:57:30.650Z,103527.94
2023-04-03T18:59:58.091Z,103539.53
2023-04-03T19:02:26.213Z,103539.50
2023-04-03T19:04:53.977Z,103531.44
2023-04-03T19:07:20.728Z,103531.41
2023-04-03T19:09:47.564Z,103526.06
2023-04-03T19:12:14.354Z,103533.16
2023-04-03T19:14:41.166Z,103529.56
2023-04-03T19:17:09.022Z,103534.84
2023-04-03T19:19:35.767Z,103531.16
2023-04-03T19:22:02.631Z,103523.13
2023-04-03T19:24:30.332Z,103524.94
2023-04-03T19:26:57.297Z,103529.38
2023-04-03T19:29:23.944Z,103522.22
2023-04-03T19:31:50.794Z,103514.88
2023-04-03T19:34:17.513Z,103513.94
2023-04-03T19:36:45.419Z,103516.59
2023-04-03T19:39:15.733Z,103509.47
2023-04-03T19:41:45.046Z,103506.78
2023-04-03T19:44:14.110Z,103500.28
2023-04-03T19:46:40.910Z,103510.91
2023-04-03T19:49:18.384Z,103505.66
2023-04-03T19:51:45.073Z,103503.06
2023-04-03T19:54:12.050Z,103506.66
2023-04-03T19:56:39.202Z,103502.19
2023-04-03T19:59:06.156Z,103507.34
2023-04-03T20:01:34.706Z,103502.88
2023-04-03T20:04:02.079Z,103497.53
2023-04-03T20:06:28.970Z,103500.28
2023-04-03T20:08:55.873Z,103502.00
2023-04-03T20:11:23.795Z,103502.00
2023-04-03T20:13:51.996Z,103502.91
2023-04-03T20:16:22.310Z,103504.78
2023-04-03T20:18:51.074Z,103504.13
2023-04-03T20:21:19.594Z,103500.47
2023-04-03T20:23:46.402Z,103496.84
2023-04-03T20:26:23.240Z,103494.22
2023-04-03T20:28:59.516Z,103493.22
2023-04-03T20:31:28.176Z,103495.03
2023-04-03T20:33:55.112Z,103501.22
2023-04-03T20:36:23.535Z,103500.19
2023-04-03T20:38:52.607Z,103500.03
2023-04-03T20:41:19.458Z,103504.47
2023-04-03T20:43:47.841Z,103511.63
2023-04-03T20:46:19.570Z,103507.13
2023-04-03T20:48:48.035Z,103501.81
2023-04-03T20:51:21.117Z,103501.72
2023-04-03T20:53:48.646Z,103502.59
2023-04-03T20:56:17.763Z,103502.56
2023-04-03T20:58:46.157Z,103504.38
2023-04-03T21:01:22.834Z,103495.28
2023-04-03T21:03:52.500Z,103500.66
2023-04-03T21:06:57.042Z,103496.16
2023-04-03T21:10:01.525Z,103494.31
2023-04-03T21:13:06.480Z,103490.69
2023-04-03T21:16:06.523Z,103493.31
2023-04-03T21:18:37.164Z,103508.44
2023-04-03T21:21:04.862Z,103500.44
2023-04-03T21:23:32.889Z,103502.16
2023-04-03T21:26:00.730Z,103497.72
2023-04-03T21:28:27.556Z,103497.63
2023-04-03T21:30:54.345Z,103502.06
2023-04-03T21:33:21.239Z,103502.06
2023-04-03T21:35:48.596Z,103491.38
2023-04-03T21:38:15.604Z,103489.56
2023-04-03T21:40:46.568Z,103491.28
2023-04-03T21:43:13.555Z,103492.00
2023-04-03T21:45:40.788Z,103490.16
2023-04-03T21:48:10.196Z,103486.75
2023-04-03T21:50:37.255Z,103499.22
2023-04-03T21:53:04.048Z,103494.59
2023-04-03T21:55:30.738Z,103492.69
2023-04-03T21:57:58.124Z,103493.44
2023-04-03T22:00:25.072Z,103496.13
2023-04-03T22:03:00.510Z,103492.59
2023-04-03T22:05:35.976Z,103491.78
2023-04-03T22:08:04.196Z,103486.53
2023-04-03T22:10:34.037Z,103494.56
2023-04-03T22:13:01.102Z,103491.94
2023-04-03T22:15:27.781Z,103493.53
2023-04-03T22:17:54.515Z,103498.47
2023-04-03T22:20:21.341Z,103500.91
2023-04-03T22:22:50.622Z,103491.28
2023-04-03T22:25:17.321Z,103498.53
2023-04-03T22:27:44.050Z,103491.41
2023-04-03T22:30:11.315Z,103491.25
2023-04-03T22:32:38.143Z,103484.22
2023-04-03T22:35:05.321Z,103490.53
2023-04-03T22:37:31.988Z,103479.84
2023-04-03T22:39:58.677Z,103486.09
2023-04-03T22:42:25.463Z,103482.53
2023-04-03T22:44:53.237Z,103479.88
2023-04-03T22:47:20.084Z,103480.81
2023-04-03T22:49:46.804Z,103472.84
2023-04-03T22:52:13.439Z,103484.34
2023-04-03T22:54:40.402Z,103483.59
2023-04-03T22:57:07.147Z,103494.81
2023-04-03T22:59:33.779Z,103496.50
2023-04-03T23:02:00.482Z,103501.25
2023-04-03T23:04:27.215Z,103497.03
2023-04-03T23:06:56.387Z,103494.47
2023-04-03T23:09:23.455Z,103499.03
2023-04-03T23:11:50.373Z,103491.97
2023-04-03T23:14:17.078Z,103488.41
2023-04-03T23:16:47.439Z,103485.66
2023-04-03T23:19:14.089Z,103488.69
2023-04-03T23:21:40.693Z,103491.22
2023-04-03T23:24:08.480Z,103486.72
2023-04-03T23:26:35.156Z,103485.84
2023-04-03T23:29:02.106Z,103480.22
2023-04-03T23:31:28.810Z,103483.69
2023-04-03T23:33:55.558Z,103480.41
2023-04-03T23:36:22.542Z,103475.06
2023-04-03T23:38:49.232Z,103473.09
2023-04-03T23:41:16.142Z,103473.13
2023-04-03T23:43:43.280Z,103467.94
2023-04-03T23:46:10.088Z,103470.81
2023-04-03T23:48:37.029Z,103470.75
2023-04-03T23:51:03.999Z,103463.44
2023-04-03T23:53:30.731Z,103455.25
2023-04-03T23:55:57.810Z,103461.38
2023-04-03T23:58:24.548Z,103459.66
